Time;durP1;ratioP1;P1;durP2;ratioP2;P2;SDS_P1;SDS_P2;PMS_P1;PMS_P2;Temp;Humidity;BMP_temperature;BMP_pressure;BME280_temperature;BME280_humidity;BME280_pressure;Samples;Min_cycle;Max_cycle;Signal;HPM_P1;HPM_P2
2023/08/11 00:00:00;;;;;;;9.15;6.28;;;;;;;;;;4409056;32;69200;-57
2023/08/11 00:02:49;;;;;;;8.10;5.80;;;;;;;;;;4410321;32;67540;-57
2023/08/11 00:05:40;;;;;;;8.75;6.25;;;;;;;;;;4410307;32;70728;-58
2023/08/11 00:08:26;;;;;;;8.80;6.05;;;;;;;;;;4408800;32;66456;-57
2023/08/11 00:11:13;;;;;;;10.85;5.43;;;;;;;;;;4410150;32;69505;-57
2023/08/11 00:13:59;;;;;;;;;;;;;;;;;;4410696;32;67386;-57
2023/08/11 00:16:45;;;;;;;8.63;6.00;;;;;;;;;;4408987;32;72198;-57
2023/08/11 00:19:32;;;;;;;9.73;6.25;;;;;;;;;;4408558;32;65856;-57
2023/08/11 00:22:19;;;;;;;8.45;6.30;;;;;;;;;;4410487;32;67088;-57
2023/08/11 00:25:06;;;;;;;8.57;5.97;;;;;;;;;;4410545;32;59874;-57
2023/08/11 00:27:53;;;;;;;7.95;6.65;;;;;;;;;;4408687;32;69396;-57
2023/08/11 00:30:40;;;;;;;10.05;6.25;;;;;;;;;;4406900;32;69286;-57
2023/08/11 00:33:27;;;;;;;11.00;7.07;;;;;;;;;;4399919;32;67649;-57
2023/08/11 00:36:17;;;;;;;10.77;6.95;;;;;;;;;;4398691;32;59508;-57
2023/08/11 00:39:04;;;;;;;10.18;6.72;;;;;;;;;;4398563;32;70503;-56
2023/08/11 00:41:50;;;;;;;9.70;5.75;;;;;;;;;;4398458;32;69371;-56
2023/08/11 00:44:37;;;;;;;9.85;6.12;;;;;;;;;;4398507;32;67592;-57
2023/08/11 00:47:24;;;;;;;10.35;6.18;;;;;;;;;;4399720;32;71393;-57
2023/08/11 00:50:12;;;;;;;10.52;7.10;;;;;;;;;;4399654;32;65694;-56
2023/08/11 00:53:01;;;;;;;9.80;6.78;;;;;;;;;;4398418;32;67763;-57
2023/08/11 00:55:49;;;;;;;9.30;6.55;;;;;;;;;;4399735;32;59570;-56
2023/08/11 00:58:36;;;;;;;11.12;6.87;;;;;;;;;;4399357;32;70457;-57
2023/08/11 01:01:22;;;;;;;10.57;6.90;;;;;;;;;;4399581;32;65878;-57
2023/08/11 01:04:09;;;;;;;10.98;6.95;;;;;;;;;;4387656;32;67534;-57
2023/08/11 01:07:17;;;;;;;9.75;6.22;;;;;;;;;;4399687;32;60010;-57
2023/08/11 01:10:12;;;;;;;11.50;6.62;;;;;;;;;;4386848;32;71559;-57
2023/08/11 01:13:19;;;;;;;10.52;6.62;;;;;;;;;;4399363;32;68130;-56
2023/08/11 01:16:08;;;;;;;13.00;8.18;;;;;;;;;;4399483;32;66824;-56
2023/08/11 01:18:55;;;;;;;14.18;6.95;;;;;;;;;;4398742;32;70701;-57
2023/08/11 01:21:42;;;;;;;12.18;7.82;;;;;;;;;;4399270;32;65007;-57
2023/08/11 01:24:29;;;;;;;15.55;7.72;;;;;;;;;;4398226;32;66575;-56
2023/08/11 01:27:16;;;;;;;13.65;7.18;;;;;;;;;;4398109;32;66730;-57
2023/08/11 01:30:05;;;;;;;14.25;8.32;;;;;;;;;;4399077;32;71859;-57
2023/08/11 01:32:51;;;;;;;12.65;7.10;;;;;;;;;;4399487;32;64771;-57
2023/08/11 01:35:38;;;;;;;17.02;7.75;;;;;;;;;;4399178;32;66784;-56
2023/08/11 01:38:26;;;;;;;14.87;7.80;;;;;;;;;;4397888;32;60281;-57
2023/08/11 01:41:14;;;;;;;14.43;7.20;;;;;;;;;;4387038;32;70492;-56
2023/08/11 01:44:00;;;;;;;11.65;7.30;;;;;;;;;;4398164;32;69295;-57
2023/08/11 01:46:49;;;;;;;10.20;6.87;;;;;;;;;;4386285;32;68688;-58
2023/08/11 01:49:37;;;;;;;11.12;6.57;;;;;;;;;;4398932;32;60177;-56
2023/08/11 01:52:25;;;;;;;14.23;6.78;;;;;;;;;;4397645;32;69981;-56
2023/08/11 01:55:11;;;;;;;13.15;6.78;;;;;;;;;;4398800;32;69376;-57
2023/08/11 01:57:59;;;;;;;10.38;6.85;;;;;;;;;;4398996;32;67973;-57
2023/08/11 02:00:46;;;;;;;12.60;7.40;;;;;;;;;;4397410;32;71120;-57
2023/08/11 02:03:33;;;;;;;13.62;7.12;;;;;;;;;;4398713;32;66297;-58
2023/08/11 02:06:19;;;;;;;14.35;6.87;;;;;;;;;;4397036;32;68465;-57
2023/08/11 02:09:12;;;;;;;12.25;7.12;;;;;;;;;;4397746;32;60245;-58
2023/08/11 02:11:58;;;;;;;8.88;7.00;;;;;;;;;;4398610;32;70562;-58
2023/08/11 02:14:45;;;;;;;12.40;7.70;;;;;;;;;;4396896;32;66201;-57
2023/08/11 02:17:34;;;;;;;11.35;7.03;;;;;;;;;;4397814;32;68024;-56
2023/08/11 02:20:21;;;;;;;11.63;7.20;;;;;;;;;;4386359;32;59787;-57
2023/08/11 02:23:08;;;;;;;11.93;7.10;;;;;;;;;;4398646;32;70521;-57
2023/08/11 02:25:55;;;;;;;10.45;7.40;;;;;;;;;;4396646;32;70566;-57
2023/08/11 02:28:42;;;;;;;9.73;7.25;;;;;;;;;;4398330;32;67701;-58
2023/08/11 02:31:28;;;;;;;9.02;6.60;;;;;;;;;;4398463;32;71917;-56
2023/08/11 02:34:15;;;;;;;11.20;7.05;;;;;;;;;;4398653;32;66253;-57
2023/08/11 02:37:01;;;;;;;;;;;;;;;;;;4399001;32;67583;-57
2023/08/11 02:39:48;;;;;;;10.10;7.35;;;;;;;;;;4396766;32;69074;-57
2023/08/11 02:42:34;;;;;;;10.88;7.50;;;;;;;;;;4398330;32;71687;-56
2023/08/11 02:45:21;;;;;;;12.40;7.37;;;;;;;;;;4398177;32;64709;-57
2023/08/11 02:48:08;;;;;;;11.95;8.05;;;;;;;;;;4397029;32;66832;-57
2023/08/11 02:50:55;;;;;;;10.13;7.15;;;;;;;;;;4397236;32;60280;-57
2023/08/11 02:53:41;;;;;;;13.43;8.48;;;;;;;;;;4397893;32;70507;-57
2023/08/11 02:56:28;;;;;;;11.38;7.78;;;;;;;;;;4398069;32;68061;-57
2023/08/11 02:59:14;;;;;;;;;;;;;;;;;;4398394;32;67740;-56
2023/08/11 03:02:01;;;;;;;14.25;8.07;;;;;;;;;;4398462;32;71068;-57
2023/08/11 03:04:48;;;;;;;11.43;6.93;;;;;;;;;;4396805;32;69347;-57
2023/08/11 03:07:36;;;;;;;11.20;8.00;;;;;;;;;;4396850;32;69178;-57
2023/08/11 03:10:22;;;;;;;10.32;6.62;;;;;;;;;;4397986;32;67903;-57
2023/08/11 03:13:10;;;;;;;10.85;7.35;;;;;;;;;;4397828;32;71815;-57
2023/08/11 03:15:56;;;;;;;10.65;7.45;;;;;;;;;;4398155;32;65696;-57
2023/08/11 03:18:43;;;;;;;13.43;7.43;;;;;;;;;;4396230;32;66170;-57
2023/08/11 03:21:30;;;;;;;16.08;7.60;;;;;;;;;;4396524;32;61853;-58
2023/08/11 03:24:18;;;;;;;22.48;7.90;;;;;;;;;;4390529;32;70946;-57
2023/08/11 03:27:08;;;;;;;11.57;6.85;;;;;;;;;;4401527;32;68017;-58
2023/08/11 03:29:55;;;;;;;14.07;7.60;;;;;;;;;;4402168;32;67399;-58
2023/08/11 03:32:41;;;;;;;;;;;;;;;;;;4402653;32;59253;-57
2023/08/11 03:35:28;;;;;;;10.85;7.68;;;;;;;;;;4401040;32;69886;-57
2023/08/11 03:38:15;;;;;;;;;;;;;;;;;;4386281;32;68262;-56
2023/08/11 03:41:01;;;;;;;9.20;7.10;;;;;;;;;;4396699;32;66828;-57
2023/08/11 03:43:48;;;;;;;11.45;7.32;;;;;;;;;;4385013;32;73390;-57
2023/08/11 03:46:35;;;;;;;10.90;7.93;;;;;;;;;;4385355;32;66924;-57
2023/08/11 03:49:22;;;;;;;10.73;7.32;;;;;;;;;;4385612;32;67428;-57
2023/08/11 03:52:08;;;;;;;11.85;8.35;;;;;;;;;;4374701;32;59429;-57
2023/08/11 03:54:55;;;;;;;11.32;7.00;;;;;;;;;;4395800;32;71213;-57
2023/08/11 03:57:42;;;;;;;13.70;6.85;;;;;;;;;;4374550;32;63648;-57
2023/08/11 04:00:29;;;;;;;13.38;6.95;;;;;;;;;;4385608;32;67113;-57
2023/08/11 04:06:01;;;;;;;11.05;7.30;;;;;;;;;;3847476;37;43391;-57
2023/08/11 04:08:48;;;;;;;15.90;7.90;;;;;;;;;;4398689;32;58137;-57
2023/08/11 04:11:35;;;;;;;14.13;7.50;;;;;;;;;;4409620;32;69412;-57
2023/08/11 04:14:21;;;;;;;13.90;6.80;;;;;;;;;;4411006;32;69150;-56
2023/08/11 04:17:08;;;;;;;11.93;6.80;;;;;;;;;;4409485;32;66656;-56
2023/08/11 04:19:54;;;;;;;13.02;8.48;;;;;;;;;;4409512;32;71539;-57
2023/08/11 04:22:41;;;;;;;13.35;7.78;;;;;;;;;;4410892;32;65630;-57
2023/08/11 04:25:28;;;;;;;13.93;7.57;;;;;;;;;;4410690;32;67426;-57
2023/08/11 04:28:14;;;;;;;;;;;;;;;;;;4411457;32;59421;-57
2023/08/11 04:31:01;;;;;;;12.20;6.90;;;;;;;;;;4410718;32;70849;-57
2023/08/11 04:33:49;;;;;;;10.82;6.72;;;;;;;;;;4399080;32;65062;-58
2023/08/11 04:36:37;;;;;;;9.45;7.12;;;;;;;;;;4398583;32;67229;-57
2023/08/11 04:39:23;;;;;;;18.02;8.32;;;;;;;;;;4410875;32;58774;-57
2023/08/11 04:42:11;;;;;;;12.32;7.60;;;;;;;;;;4410460;32;69757;-58
2023/08/11 04:44:57;;;;;;;12.40;7.87;;;;;;;;;;4398323;32;69257;-57
2023/08/11 04:47:44;;;;;;;11.85;7.30;;;;;;;;;;4410289;32;67201;-58
2023/08/11 04:50:32;;;;;;;12.15;7.72;;;;;;;;;;4410392;32;71743;-58
2023/08/11 04:53:20;;;;;;;12.23;7.82;;;;;;;;;;4409565;32;66231;-57
2023/08/11 04:56:08;;;;;;;11.20;7.43;;;;;;;;;;4410341;32;69357;-57
2023/08/11 04:58:56;;;;;;;12.88;8.80;;;;;;;;;;4408952;32;66895;-58
2023/08/11 05:01:42;;;;;;;18.10;8.73;;;;;;;;;;4397528;32;72796;-57
2023/08/11 05:04:29;;;;;;;15.02;8.23;;;;;;;;;;4409930;32;64794;-57
2023/08/11 05:07:15;;;;;;;12.23;8.38;;;;;;;;;;4410262;32;66670;-57
2023/08/11 05:10:02;;;;;;;15.90;10.02;;;;;;;;;;4408600;32;58098;-57
2023/08/11 05:12:50;;;;;;;12.57;7.43;;;;;;;;;;4394676;32;70607;-57
2023/08/11 05:15:37;;;;;;;12.13;7.57;;;;;;;;;;4391941;32;69209;-57
2023/08/11 05:18:24;;;;;;;10.68;7.12;;;;;;;;;;4371864;32;67952;-56
2023/08/11 05:21:13;;;;;;;15.30;7.35;;;;;;;;;;4384922;32;59303;-56
2023/08/11 05:23:59;;;;;;;13.85;8.88;;;;;;;;;;4383089;32;70533;-57
2023/08/11 05:26:46;;;;;;;15.05;8.95;;;;;;;;;;4383192;32;68248;-57
2023/08/11 05:29:33;;;;;;;12.55;6.90;;;;;;;;;;4384607;32;66549;-57
2023/08/11 05:32:20;;;;;;;11.48;7.82;;;;;;;;;;4383094;32;71610;-56
2023/08/11 05:35:08;;;;;;;14.07;6.93;;;;;;;;;;4384593;32;65758;-57
2023/08/11 05:37:54;;;;;;;10.18;7.30;;;;;;;;;;4384377;32;67981;-56
2023/08/11 05:40:42;;;;;;;;;;;;;;;;;;4372031;32;61196;-57
2023/08/11 05:43:29;;;;;;;10.73;8.00;;;;;;;;;;4384349;32;70392;-56
2023/08/11 05:46:16;;;;;;;13.20;8.88;;;;;;;;;;4382889;32;64739;-57
2023/08/11 05:49:02;;;;;;;10.98;7.70;;;;;;;;;;4382981;32;66254;-58
2023/08/11 05:51:49;;;;;;;10.68;7.90;;;;;;;;;;4384620;32;59392;-57
2023/08/11 05:54:36;;;;;;;12.07;7.85;;;;;;;;;;4383948;32;70208;-57
2023/08/11 05:57:22;;;;;;;13.73;7.57;;;;;;;;;;4384270;32;68400;-57
2023/08/11 06:00:10;;;;;;;12.52;8.18;;;;;;;;;;4382330;32;68336;-56
2023/08/11 06:02:59;;;;;;;14.02;8.32;;;;;;;;;;4383991;32;70780;-58
2023/08/11 06:05:46;;;;;;;12.10;8.48;;;;;;;;;;4383645;32;64960;-57
2023/08/11 06:08:32;;;;;;;9.68;7.43;;;;;;;;;;4383085;32;67425;-57
2023/08/11 06:11:19;;;;;;;12.40;6.90;;;;;;;;;;4383981;32;66562;-57
2023/08/11 06:14:05;;;;;;;10.07;6.80;;;;;;;;;;4382466;32;71657;-57
2023/08/11 06:16:52;;;;;;;8.55;6.68;;;;;;;;;;4383985;32;66241;-56
2023/08/11 06:19:38;;;;;;;;;;;;;;;;;;4384329;32;67604;-58
2023/08/11 06:22:25;;;;;;;8.70;5.55;;;;;;;;;;4384345;32;59824;-58
2023/08/11 06:25:15;;;;;;;15.38;7.55;;;;;;;;;;4383706;32;69672;-57
2023/08/11 06:28:02;;;;;;;10.40;6.82;;;;;;;;;;4382819;32;69285;-57
2023/08/11 06:30:49;;;;;;;11.27;7.32;;;;;;;;;;4383666;32;66479;-57
2023/08/11 06:33:36;;;;;;;9.35;6.53;;;;;;;;;;4384016;32;60118;-57
2023/08/11 06:36:22;;;;;;;10.02;7.32;;;;;;;;;;4382225;32;70330;-58
2023/08/11 06:39:09;;;;;;;9.57;6.40;;;;;;;;;;4381824;32;69405;-57
2023/08/11 06:41:55;;;;;;;9.20;6.60;;;;;;;;;;4383712;32;67810;-57
2023/08/11 06:45:00;;;;;;;10.85;6.93;;;;;;;;;;4383349;32;71598;-57
2023/08/11 06:47:46;;;;;;;;;;;;;;;;;;4383205;32;65514;-56
2023/08/11 06:50:33;;;;;;;8.37;6.70;;;;;;;;;;4383806;32;68049;-57
2023/08/11 06:53:19;;;;;;;8.20;6.30;;;;;;;;;;4383727;32;60193;-57
2023/08/11 06:56:06;;;;;;;9.02;6.20;;;;;;;;;;4381959;32;69713;-56
2023/08/11 06:58:52;;;;;;;8.65;5.53;;;;;;;;;;4383463;32;64735;-56
2023/08/11 07:01:39;;;;;;;9.90;6.37;;;;;;;;;;4382078;32;67411;-56
2023/08/11 07:04:26;;;;;;;8.00;6.25;;;;;;;;;;4381272;32;58339;-57
2023/08/11 07:07:12;;;;;;;12.98;7.70;;;;;;;;;;4383184;32;70861;-57
2023/08/11 07:09:59;;;;;;;9.43;5.85;;;;;;;;;;4383190;32;69443;-57
2023/08/11 07:12:46;;;;;;;9.98;6.18;;;;;;;;;;4360700;32;68109;-57
2023/08/11 07:15:32;;;;;;;8.90;6.20;;;;;;;;;;4381258;32;71329;-57
2023/08/11 07:18:21;;;;;;;9.00;6.50;;;;;;;;;;4383226;32;65150;-58
2023/08/11 07:21:07;;;;;;;7.95;5.05;;;;;;;;;;4383491;32;67863;-57
2023/08/11 07:23:55;;;;;;;6.70;5.15;;;;;;;;;;4370133;32;65939;-56
2023/08/11 07:26:41;;;;;;;8.77;5.60;;;;;;;;;;4382799;32;70630;-57
2023/08/11 07:29:28;;;;;;;8.13;5.80;;;;;;;;;;4381853;32;66062;-56
2023/08/11 07:32:14;;;;;;;8.23;6.30;;;;;;;;;;4383050;32;67553;-57
2023/08/11 07:35:01;;;;;;;9.15;6.37;;;;;;;;;;4370097;32;60583;-57
2023/08/11 07:37:48;;;;;;;8.60;5.37;;;;;;;;;;4382654;32;70510;-58
2023/08/11 07:40:35;;;;;;;7.75;6.70;;;;;;;;;;4381320;32;67955;-57
2023/08/11 07:43:22;;;;;;;8.52;5.68;;;;;;;;;;4382742;32;66771;-57
2023/08/11 07:46:09;;;;;;;8.25;5.93;;;;;;;;;;4383037;32;70865;-57
2023/08/11 07:48:55;;;;;;;;;;;;;;;;;;4349398;32;68503;-57
2023/08/11 07:51:41;;;;;;;8.87;5.60;;;;;;;;;;4392264;32;68685;-57
2023/08/11 07:54:28;;;;;;;7.18;5.95;;;;;;;;;;4371122;32;67480;-57
2023/08/11 07:57:15;;;;;;;8.63;6.45;;;;;;;;;;4369878;32;72718;-57
2023/08/11 08:00:04;;;;;;;8.15;6.87;;;;;;;;;;4382788;32;65032;-58
2023/08/11 08:02:58;;;;;;;;;;;;;;;;;;4382013;32;66532;-57
2023/08/11 08:05:45;;;;;;;8.40;5.35;;;;;;;;;;4382739;32;59782;-56
2023/08/11 08:08:33;;;;;;;8.80;5.82;;;;;;;;;;4370742;32;69768;-58
2023/08/11 08:11:20;;;;;;;9.07;5.40;;;;;;;;;;4381650;32;69181;-57
2023/08/11 08:14:07;;;;;;;8.00;5.37;;;;;;;;;;4382733;32;67461;-57
2023/08/11 08:16:54;;;;;;;8.52;6.22;;;;;;;;;;4381173;32;59483;-57
2023/08/11 08:19:40;;;;;;;7.15;5.55;;;;;;;;;;4382457;32;71023;-58
2023/08/11 08:22:27;;;;;;;8.02;5.53;;;;;;;;;;4382547;32;69726;-57
2023/08/11 08:25:15;;;;;;;8.75;6.35;;;;;;;;;;4382514;32;66934;-57
2023/08/11 08:28:01;;;;;;;9.18;5.35;;;;;;;;;;4369810;32;71247;-57
2023/08/11 08:30:48;;;;;;;10.63;6.12;;;;;;;;;;4381291;32;65851;-56
2023/08/11 08:33:34;;;;;;;7.57;5.85;;;;;;;;;;4382466;32;67733;-57
2023/08/11 08:36:21;;;;;;;;;;;;;;;;;;4381876;32;59868;-56
2023/08/11 08:39:08;;;;;;;8.25;5.80;;;;;;;;;;4380470;32;73535;-58
2023/08/11 08:41:55;;;;;;;8.50;6.05;;;;;;;;;;4369587;32;63632;-57
2023/08/11 08:44:42;;;;;;;6.57;4.95;;;;;;;;;;4381121;32;67843;-57
2023/08/11 08:47:29;;;;;;;10.32;5.70;;;;;;;;;;4360199;32;60048;-56
2023/08/11 08:50:16;;;;;;;10.43;5.32;;;;;;;;;;4380888;32;69312;-57
2023/08/11 08:53:03;;;;;;;7.37;4.37;;;;;;;;;;4383657;32;68243;-57
2023/08/11 08:55:49;;;;;;;9.57;6.10;;;;;;;;;;4384818;32;67665;-57
2023/08/11 08:58:36;;;;;;;7.18;5.22;;;;;;;;;;4385086;32;71804;-57
2023/08/11 09:01:23;;;;;;;8.65;5.37;;;;;;;;;;4384776;32;70377;-56
2023/08/11 09:04:10;;;;;;;8.75;5.15;;;;;;;;;;4383250;32;69249;-58
2023/08/11 09:06:56;;;;;;;9.30;5.43;;;;;;;;;;4362639;32;68128;-57
2023/08/11 09:09:43;;;;;;;7.72;5.45;;;;;;;;;;4373236;32;71390;-57
2023/08/11 09:12:29;;;;;;;8.85;6.20;;;;;;;;;;4384902;32;66095;-57
2023/08/11 09:15:15;;;;;;;;;;;;;;;;;;4385223;32;67434;-58
2023/08/11 09:18:02;;;;;;;8.93;5.97;;;;;;;;;;4384019;32;59521;-57
2023/08/11 09:20:49;;;;;;;5.87;4.53;;;;;;;;;;4383132;32;71433;-57
2023/08/11 09:23:37;;;;;;;6.95;5.15;;;;;;;;;;4385108;32;69067;-57
2023/08/11 09:26:24;;;;;;;8.23;5.15;;;;;;;;;;4386627;32;68920;-57
2023/08/11 09:29:11;;;;;;;6.93;4.37;;;;;;;;;;4388217;32;59215;-57
2023/08/11 09:31:58;;;;;;;9.30;5.45;;;;;;;;;;4386278;32;70503;-57
2023/08/11 09:34:44;;;;;;;7.43;4.55;;;;;;;;;;4382799;32;69078;-57
2023/08/11 09:37:31;;;;;;;8.18;4.87;;;;;;;;;;4384368;32;67725;-57
2023/08/11 09:40:17;;;;;;;6.18;4.10;;;;;;;;;;4384377;32;70320;-57
2023/08/11 09:43:04;;;;;;;9.23;4.45;;;;;;;;;;4384400;32;66002;-56
2023/08/11 09:45:53;;;;;;;6.20;4.50;;;;;;;;;;4384318;32;66742;-57
2023/08/11 09:48:39;;;;;;;8.48;5.00;;;;;;;;;;4384375;32;59035;-57
2023/08/11 09:51:26;;;;;;;6.45;4.03;;;;;;;;;;4384135;32;71052;-56
2023/08/11 09:54:13;;;;;;;;;;;;;;;;;;4383395;32;64971;-57
2023/08/11 09:57:00;;;;;;;7.03;4.97;;;;;;;;;;4393968;32;68423;-57
2023/08/11 09:59:48;;;;;;;6.78;4.53;;;;;;;;;;4383227;32;59623;-57
2023/08/11 10:02:36;;;;;;;8.45;4.65;;;;;;;;;;4383958;32;70721;-58
2023/08/11 10:05:24;;;;;;;6.37;5.12;;;;;;;;;;4382606;32;69537;-57
2023/08/11 10:08:14;;;;;;;8.00;4.93;;;;;;;;;;4384220;32;67581;-57
2023/08/11 10:11:01;;;;;;;6.68;4.43;;;;;;;;;;4382691;32;72037;-58
2023/08/11 10:13:48;;;;;;;6.57;4.45;;;;;;;;;;4384676;32;66135;-58
2023/08/11 10:16:36;;;;;;;6.35;4.32;;;;;;;;;;4372306;32;69350;-58
2023/08/11 10:19:23;;;;;;;4.65;3.10;;;;;;;;;;4382641;32;66764;-57
2023/08/11 10:22:10;;;;;;;6.30;4.45;;;;;;;;;;4383842;32;71891;-58
2023/08/11 10:24:55;;;;;;;;;;;;;;;;;;4384468;32;64683;-57
2023/08/11 10:27:42;;;;;;;6.93;4.68;;;;;;;;;;4382679;32;67949;-57
2023/08/11 10:30:29;;;;;;;8.68;4.82;;;;;;;;;;4361852;32;60015;-57
2023/08/11 10:33:16;;;;;;;11.12;5.90;;;;;;;;;;4383712;32;70493;-57
2023/08/11 10:36:02;;;;;;;;;;;;;;;;;;4384035;32;69403;-58
2023/08/11 10:39:03;;;;;;;7.32;5.00;;;;;;;;;;4393548;32;67251;-58
2023/08/11 10:41:51;;;;;;;6.03;3.95;;;;;;;;;;4383926;32;59947;-57
2023/08/11 10:44:43;;;;;;;7.03;4.43;;;;;;;;;;4383517;32;69706;-57
2023/08/11 10:47:31;;;;;;;7.75;4.70;;;;;;;;;;4382198;32;68143;-58
2023/08/11 10:50:18;;;;;;;9.35;5.60;;;;;;;;;;4371783;32;67399;-57
2023/08/11 10:53:10;;;;;;;5.85;4.03;;;;;;;;;;4383443;32;71855;-57
2023/08/11 10:56:01;;;;;;;6.57;4.90;;;;;;;;;;4371569;32;65745;-57
2023/08/11 10:58:48;;;;;;;6.20;4.72;;;;;;;;;;4371622;32;67838;-57
2023/08/11 11:01:40;;;;;;;7.40;4.82;;;;;;;;;;4383880;32;60315;-57
2023/08/11 11:04:31;;;;;;;6.30;4.35;;;;;;;;;;4382875;32;70541;-56
2023/08/11 11:07:24;;;;;;;6.28;4.53;;;;;;;;;;4383563;32;65004;-58
2023/08/11 11:10:11;;;;;;;7.70;4.10;;;;;;;;;;4383673;32;67228;-58
2023/08/11 11:12:58;;;;;;;7.35;4.37;;;;;;;;;;4383937;32;59324;-57
2023/08/11 11:15:44;;;;;;;8.32;4.53;;;;;;;;;;4382989;32;70157;-57
2023/08/11 11:18:31;;;;;;;5.47;3.53;;;;;;;;;;4383357;32;68327;-57
2023/08/11 11:21:18;;;;;;;5.82;3.92;;;;;;;;;;4382003;32;67412;-57
2023/08/11 11:24:05;;;;;;;7.20;4.90;;;;;;;;;;4383013;32;71753;-58
2023/08/11 11:26:52;;;;;;;8.27;4.82;;;;;;;;;;4383582;32;66186;-57
2023/08/11 11:29:39;;;;;;;5.07;3.80;;;;;;;;;;4383152;32;67977;-57
2023/08/11 11:32:25;;;;;;;8.48;4.20;;;;;;;;;;4370358;32;69037;-58
2023/08/11 11:35:13;;;;;;;6.82;4.85;;;;;;;;;;4381384;32;72863;-57
2023/08/11 11:37:59;;;;;;;7.55;3.78;;;;;;;;;;4383117;32;65865;-57
2023/08/11 11:40:49;;;;;;;6.75;4.68;;;;;;;;;;4382911;32;67869;-57
2023/08/11 11:43:36;;;;;;;6.93;4.80;;;;;;;;;;4383316;32;60246;-57
2023/08/11 11:46:23;;;;;;;6.68;4.55;;;;;;;;;;4381146;32;71784;-57
2023/08/11 11:49:09;;;;;;;8.93;5.18;;;;;;;;;;4360343;32;69723;-57
2023/08/11 11:51:57;;;;;;;6.95;4.10;;;;;;;;;;4382989;32;66674;-57
2023/08/11 11:54:43;;;;;;;9.40;5.10;;;;;;;;;;4383110;32;59804;-57
2023/08/11 11:57:30;;;;;;;7.10;4.90;;;;;;;;;;4359722;32;71258;-57
2023/08/11 12:00:16;;;;;;;8.23;4.90;;;;;;;;;;4382778;32;68355;-58
2023/08/11 12:03:02;;;;;;;;;;;;;;;;;;4383367;32;66883;-57
2023/08/11 12:05:49;;;;;;;7.75;4.68;;;;;;;;;;4381382;32;71160;-57
2023/08/11 12:08:37;;;;;;;7.85;4.93;;;;;;;;;;4381959;32;65961;-57
2023/08/11 12:11:24;;;;;;;7.07;4.35;;;;;;;;;;4382903;32;66986;-56
2023/08/11 12:14:13;;;;;;;7.60;4.85;;;;;;;;;;4381129;32;59881;-56
2023/08/11 12:17:00;;;;;;;6.62;4.82;;;;;;;;;;4382383;32;70538;-56
2023/08/11 12:19:49;;;;;;;6.43;4.00;;;;;;;;;;4382675;32;65057;-57
2023/08/11 12:22:36;;;;;;;6.85;4.07;;;;;;;;;;4381389;32;66719;-57
2023/08/11 12:25:23;;;;;;;7.25;4.28;;;;;;;;;;4382977;32;60283;-56
2023/08/11 12:28:09;;;;;;;6.68;4.80;;;;;;;;;;4362350;32;71202;-56
2023/08/11 12:30:56;;;;;;;8.45;5.10;;;;;;;;;;4372813;32;68769;-57
2023/08/11 12:33:43;;;;;;;7.55;4.65;;;;;;;;;;4383337;32;68151;-57
2023/08/11 12:36:30;;;;;;;6.50;4.55;;;;;;;;;;4383293;32;71944;-61
2023/08/11 12:39:16;;;;;;;8.48;5.75;;;;;;;;;;4384907;32;65122;-56
2023/08/11 12:42:03;;;;;;;7.12;4.78;;;;;;;;;;4383257;32;68063;-56
2023/08/11 12:44:50;;;;;;;8.20;4.80;;;;;;;;;;4384514;32;67703;-58
2023/08/11 12:47:36;;;;;;;6.07;4.30;;;;;;;;;;4384098;32;72102;-58
2023/08/11 12:50:28;;;;;;;8.88;3.80;;;;;;;;;;4383203;32;66013;-58
2023/08/11 12:53:14;;;;;;;7.25;5.28;;;;;;;;;;4384348;32;68102;-57
2023/08/11 12:56:01;;;;;;;7.30;4.40;;;;;;;;;;4385258;32;60272;-57
2023/08/11 12:58:47;;;;;;;;;;;;;;;;;;4383522;32;70946;-57
2023/08/11 13:01:34;;;;;;;8.07;4.80;;;;;;;;;;4394521;32;69435;-58
2023/08/11 13:04:21;;;;;;;7.07;4.72;;;;;;;;;;4384790;32;66538;-57
2023/08/11 13:07:07;;;;;;;8.40;4.70;;;;;;;;;;4383781;32;70841;-56
2023/08/11 13:09:54;;;;;;;9.70;4.68;;;;;;;;;;4384789;32;70616;-57
2023/08/11 13:12:41;;;;;;;6.95;4.35;;;;;;;;;;4383644;32;69073;-58
2023/08/11 13:15:28;;;;;;;8.80;4.65;;;;;;;;;;4383474;32;66932;-58
2023/08/11 13:18:14;;;;;;;8.55;4.32;;;;;;;;;;4372728;32;70918;-58
2023/08/11 13:21:01;;;;;;;8.27;4.30;;;;;;;;;;4385003;32;65707;-58
2023/08/11 13:23:48;;;;;;;6.85;4.72;;;;;;;;;;4383534;32;67884;-57
2023/08/11 13:26:34;;;;;;;9.63;5.07;;;;;;;;;;4384826;32;59320;-57
2023/08/11 13:29:21;;;;;;;7.55;4.60;;;;;;;;;;4382828;32;71070;-58
2023/08/11 13:32:08;;;;;;;7.70;4.70;;;;;;;;;;4361722;32;69092;-58
2023/08/11 13:34:55;;;;;;;6.95;5.00;;;;;;;;;;4384819;32;68202;-58
2023/08/11 13:37:41;;;;;;;9.18;4.93;;;;;;;;;;4384779;32;60213;-57
2023/08/11 13:40:28;;;;;;;10.32;5.10;;;;;;;;;;4384746;32;69455;-58
2023/08/11 13:43:15;;;;;;;7.55;4.90;;;;;;;;;;4372591;32;69365;-57
2023/08/11 13:46:06;;;;;;;7.50;4.72;;;;;;;;;;4372301;32;68678;-57
2023/08/11 13:48:52;;;;;;;;;;;;;;;;;;4382928;32;72198;-58
2023/08/11 13:51:39;;;;;;;6.57;4.40;;;;;;;;;;4384906;32;65886;-57
2023/08/11 13:54:25;;;;;;;5.97;4.20;;;;;;;;;;4383340;32;67700;-57
2023/08/11 13:57:12;;;;;;;7.53;4.85;;;;;;;;;;4383518;32;67596;-57
2023/08/11 13:59:59;;;;;;;10.70;4.55;;;;;;;;;;4384381;32;72080;-57
2023/08/11 14:02:46;;;;;;;8.80;5.10;;;;;;;;;;4383139;32;64910;-57
2023/08/11 14:05:34;;;;;;;7.35;4.30;;;;;;;;;;4383882;32;68145;-57
2023/08/11 14:08:20;;;;;;;7.90;4.47;;;;;;;;;;4382988;32;59244;-57
2023/08/11 14:11:07;;;;;;;7.78;4.12;;;;;;;;;;4382272;32;71409;-57
2023/08/11 14:13:53;;;;;;;8.15;4.12;;;;;;;;;;4384111;32;67962;-57
2023/08/11 14:16:39;;;;;;;6.53;4.28;;;;;;;;;;4382777;32;67719;-57
2023/08/11 14:19:26;;;;;;;;;;;;;;;;;;4383716;32;71569;-57
2023/08/11 14:22:12;;;;;;;7.35;4.20;;;;;;;;;;4384328;32;70461;-57
2023/08/11 14:24:58;;;;;;;;;;;;;;;;;;4371657;32;70278;-57
2023/08/11 14:27:45;;;;;;;9.77;5.33;;;;;;;;;;4382896;32;66537;-57
2023/08/11 14:30:32;;;;;;;6.72;4.57;;;;;;;;;;4382678;32;70727;-56
2023/08/11 14:33:19;;;;;;;7.43;4.57;;;;;;;;;;4383929;32;66208;-57
2023/08/11 14:36:05;;;;;;;7.37;4.62;;;;;;;;;;4371246;32;68421;-57
2023/08/11 14:38:52;;;;;;;5.97;4.12;;;;;;;;;;4382746;32;59062;-56
2023/08/11 14:41:39;;;;;;;6.82;4.37;;;;;;;;;;4382038;32;71208;-56
2023/08/11 14:44:25;;;;;;;7.50;4.32;;;;;;;;;;4360849;32;69593;-56
2023/08/11 14:47:15;;;;;;;6.50;4.05;;;;;;;;;;4371170;32;66563;-57
2023/08/11 14:50:01;;;;;;;8.60;4.78;;;;;;;;;;4371675;32;59249;-56
2023/08/11 14:52:48;;;;;;;6.43;4.50;;;;;;;;;;4360724;32;71614;-57
2023/08/11 14:55:34;;;;;;;8.43;3.92;;;;;;;;;;4383687;32;69262;-56
2023/08/11 14:58:21;;;;;;;;;;;;;;;;;;4361534;32;67907;-57
2023/08/11 15:01:07;;;;;;;7.07;4.30;;;;;;;;;;4383468;32;71838;-56
2023/08/11 15:03:54;;;;;;;6.87;3.87;;;;;;;;;;4374054;32;67253;-60
2023/08/11 15:06:44;;;;;;;6.62;3.85;;;;;;;;;;4387118;32;67232;-57
2023/08/11 15:09:30;;;;;;;;;;;;;;;;;;4388024;32;60264;-56
2023/08/11 15:12:17;;;;;;;8.73;4.57;;;;;;;;;;4384145;32;71320;-56
2023/08/11 15:15:04;;;;;;;8.77;4.85;;;;;;;;;;4383747;32;65723;-58
2023/08/11 15:17:51;;;;;;;8.23;4.53;;;;;;;;;;4383073;32;67087;-57
2023/08/11 15:20:38;;;;;;;6.95;4.45;;;;;;;;;;4383805;32;60437;-59
2023/08/11 15:23:26;;;;;;;6.37;4.12;;;;;;;;;;4370588;32;69514;-57
2023/08/11 15:26:13;;;;;;;12.18;4.78;;;;;;;;;;4383124;32;69320;-57
2023/08/11 15:29:01;;;;;;;7.70;4.72;;;;;;;;;;4383072;32;67432;-57
2023/08/11 15:31:47;;;;;;;10.82;4.50;;;;;;;;;;4371070;32;70993;-58
2023/08/11 15:34:34;;;;;;;11.75;4.45;;;;;;;;;;4382056;32;64854;-57
2023/08/11 15:37:20;;;;;;;7.90;4.47;;;;;;;;;;4381264;32;70888;-58
2023/08/11 15:40:08;;;;;;;8.15;4.57;;;;;;;;;;4383054;32;66705;-58
2023/08/11 15:42:54;;;;;;;11.07;4.68;;;;;;;;;;4381198;32;71524;-57
2023/08/11 15:45:41;;;;;;;9.75;4.10;;;;;;;;;;4381254;32;67552;-57
2023/08/11 15:48:27;;;;;;;7.78;4.40;;;;;;;;;;4382311;32;66394;-57
2023/08/11 15:51:14;;;;;;;8.40;4.68;;;;;;;;;;4383503;32;59909;-57
2023/08/11 15:54:00;;;;;;;;;;;;;;;;;;4383193;32;69945;-56
2023/08/11 15:56:47;;;;;;;8.20;4.80;;;;;;;;;;4381722;32;69141;-58
2023/08/11 15:59:33;;;;;;;7.40;4.97;;;;;;;;;;4380947;32;66958;-57
2023/08/11 16:02:20;;;;;;;8.30;4.75;;;;;;;;;;4349439;32;58623;-58
2023/08/11 16:05:08;;;;;;;8.80;4.87;;;;;;;;;;4382386;32;70455;-58
2023/08/11 16:07:54;;;;;;;9.90;4.80;;;;;;;;;;4381019;32;70262;-57
2023/08/11 16:10:41;;;;;;;8.77;5.00;;;;;;;;;;4382788;32;67539;-57
2023/08/11 16:13:28;;;;;;;8.75;5.05;;;;;;;;;;4369955;32;72263;-58
2023/08/11 16:16:14;;;;;;;8.85;4.53;;;;;;;;;;4381489;32;65036;-57
2023/08/11 16:19:01;;;;;;;8.75;5.05;;;;;;;;;;4381475;32;68179;-57
2023/08/11 16:21:47;;;;;;;7.62;5.00;;;;;;;;;;4382917;32;59279;-57
2023/08/11 16:24:34;;;;;;;;;;;;;;;;;;4371106;32;71758;-57
2023/08/11 16:27:23;;;;;;;7.47;4.67;;;;;;;;;;4382867;32;66258;-57
2023/08/11 16:30:11;;;;;;;8.73;5.05;;;;;;;;;;4381254;32;66680;-57
2023/08/11 16:32:58;;;;;;;10.23;5.00;;;;;;;;;;4349261;32;60195;-57
2023/08/11 16:35:44;;;;;;;7.37;4.55;;;;;;;;;;4382694;32;70581;-57
2023/08/11 16:38:31;;;;;;;8.32;4.68;;;;;;;;;;4382347;32;68456;-58
2023/08/11 16:41:19;;;;;;;6.95;4.18;;;;;;;;;;4382473;32;68173;-57
2023/08/11 16:44:06;;;;;;;7.55;4.45;;;;;;;;;;4381072;32;71606;-56
2023/08/11 16:46:53;;;;;;;10.82;5.05;;;;;;;;;;4382643;32;65632;-58